Time;durP1;ratioP1;P1;durP2;ratioP2;P2;SDS_P1;SDS_P2;PMS_P1;PMS_P2;Temp;Humidity;BMP_temperature;BMP_pressure;BME280_temperature;BME280_humidity;BME280_pressure;Samples;Min_cycle;Max_cycle;Signal;HPM_P1;HPM_P2
2023/05/09 00:01:13;;;;;;;16.70;9.55;;;;;;;;;;5067349;28;20047;-70
2023/05/09 00:03:40;;;;;;;18.67;9.52;;;;;;;;;;5069720;28;20467;-70
2023/05/09 00:06:08;;;;;;;17.67;9.48;;;;;;;;;;5069713;28;20131;-70
2023/05/09 00:08:35;;;;;;;18.30;8.93;;;;;;;;;;5075182;28;20048;-70
2023/05/09 00:11:03;;;;;;;18.65;9.40;;;;;;;;;;5068533;28;20628;-70
2023/05/09 00:13:30;;;;;;;16.60;9.20;;;;;;;;;;5068280;28;20060;-70
2023/05/09 00:15:59;;;;;;;20.98;9.68;;;;;;;;;;5071156;28;20059;-70
2023/05/09 00:18:28;;;;;;;19.50;9.43;;;;;;;;;;5067776;28;20456;-70
2023/05/09 00:20:56;;;;;;;17.55;8.68;;;;;;;;;;5063444;28;20056;-70
2023/05/09 00:23:23;;;;;;;17.02;8.35;;;;;;;;;;5071162;28;20076;-70
2023/05/09 00:25:50;;;;;;;18.25;8.77;;;;;;;;;;5065095;28;20495;-69
2023/05/09 00:28:18;;;;;;;16.63;8.50;;;;;;;;;;5069221;28;20064;-69
2023/05/09 00:30:46;;;;;;;17.23;8.77;;;;;;;;;;5070075;28;20056;-70
2023/05/09 00:33:14;;;;;;;18.73;8.98;;;;;;;;;;5067752;28;20056;-70
2023/05/09 00:35:41;;;;;;;17.55;8.77;;;;;;;;;;5070132;28;20082;-70
2023/05/09 00:38:09;;;;;;;18.38;9.10;;;;;;;;;;5067899;28;20484;-70
2023/05/09 00:40:36;;;;;;;18.25;8.77;;;;;;;;;;5063206;28;20049;-70
2023/05/09 00:43:03;;;;;;;17.10;9.02;;;;;;;;;;5068728;28;20399;-70
2023/05/09 00:45:31;;;;;;;16.85;8.05;;;;;;;;;;5071553;28;20040;-70
2023/05/09 00:47:58;;;;;;;16.38;8.25;;;;;;;;;;5070401;28;20051;-70
2023/05/09 00:50:27;;;;;;;19.23;9.52;;;;;;;;;;5071232;28;20055;-70
2023/05/09 00:52:54;;;;;;;17.58;8.50;;;;;;;;;;5064636;28;20060;-70
2023/05/09 00:55:22;;;;;;;17.52;8.68;;;;;;;;;;5072320;28;20465;-70
2023/05/09 00:57:49;;;;;;;18.83;9.25;;;;;;;;;;5067098;28;20110;-69
2023/05/09 01:00:16;;;;;;;15.95;8.40;;;;;;;;;;5067137;28;20060;-69
2023/05/09 01:02:45;;;;;;;15.07;8.02;;;;;;;;;;5066661;28;20075;-70
2023/05/09 01:05:12;;;;;;;16.35;8.00;;;;;;;;;;5065056;28;20512;-70
2023/05/09 01:07:43;;;;;;;16.42;9.27;;;;;;;;;;5067476;28;20053;-70
2023/05/09 01:10:13;;;;;;;14.60;8.40;;;;;;;;;;5074139;28;20076;-70
2023/05/09 01:12:44;;;;;;;16.45;8.48;;;;;;;;;;5070239;28;20040;-70
2023/05/09 01:15:13;;;;;;;22.58;9.35;;;;;;;;;;5069623;28;20059;-72
2023/05/09 01:17:48;;;;;;;16.52;8.57;;;;;;;;;;5068608;28;20102;-70
2023/05/09 01:20:21;;;;;;;20.42;9.13;;;;;;;;;;5068591;28;20063;-70
2023/05/09 01:22:53;;;;;;;18.55;8.98;;;;;;;;;;5069896;28;20044;-70
2023/05/09 01:25:45;;;;;;;21.40;9.85;;;;;;;;;;5067567;28;20048;-70
2023/05/09 01:28:14;;;;;;;21.20;10.50;;;;;;;;;;5057139;28;20080;-69
2023/05/09 01:30:46;;;;;;;19.70;9.23;;;;;;;;;;5060571;28;20063;-70
2023/05/09 01:33:15;;;;;;;20.58;10.20;;;;;;;;;;5066815;28;20072;-70
2023/05/09 01:35:43;;;;;;;20.17;10.60;;;;;;;;;;5067885;28;20078;-70
2023/05/09 01:38:12;;;;;;;19.95;9.25;;;;;;;;;;5065951;28;20541;-70
2023/05/09 01:40:40;;;;;;;20.92;9.50;;;;;;;;;;5067028;28;20127;-69
2023/05/09 01:43:09;;;;;;;22.33;10.18;;;;;;;;;;5068564;28;20442;-70
2023/05/09 01:45:38;;;;;;;22.45;9.85;;;;;;;;;;5064696;28;20399;-69
2023/05/09 01:48:07;;;;;;;21.25;9.82;;;;;;;;;;5072923;28;20056;-70
2023/05/09 01:50:36;;;;;;;24.70;10.40;;;;;;;;;;5067715;28;20045;-70
2023/05/09 01:53:03;;;;;;;22.05;10.45;;;;;;;;;;5068251;28;20066;-69
2023/05/09 01:55:33;;;;;;;18.63;9.43;;;;;;;;;;5069954;28;20131;-70
2023/05/09 01:58:01;;;;;;;21.95;10.27;;;;;;;;;;5065779;28;20158;-69
2023/05/09 02:00:29;;;;;;;22.98;9.88;;;;;;;;;;5068096;28;20511;-70
2023/05/09 02:02:58;;;;;;;19.70;9.63;;;;;;;;;;5070065;28;20063;-70
2023/05/09 02:05:27;;;;;;;21.95;10.43;;;;;;;;;;5067000;28;20051;-69
2023/05/09 02:07:57;;;;;;;22.60;10.80;;;;;;;;;;5073263;28;20044;-70
2023/05/09 02:10:25;;;;;;;30.85;11.40;;;;;;;;;;5067975;28;20041;-70
2023/05/09 02:12:52;;;;;;;21.23;10.68;;;;;;;;;;5068338;28;20056;-69
2023/05/09 02:15:20;;;;;;;21.17;10.55;;;;;;;;;;5070261;28;20075;-69
2023/05/09 02:17:47;;;;;;;24.52;11.38;;;;;;;;;;5073029;28;20053;-70
2023/05/09 02:20:14;;;;;;;25.48;11.27;;;;;;;;;;5067841;28;20519;-70
2023/05/09 02:22:43;;;;;;;24.83;11.30;;;;;;;;;;5061619;28;20052;-69
2023/05/09 02:25:13;;;;;;;26.77;11.15;;;;;;;;;;5064942;28;20048;-70
2023/05/09 02:27:41;;;;;;;23.55;11.25;;;;;;;;;;5063101;28;20452;-69
2023/05/09 02:30:10;;;;;;;29.48;11.63;;;;;;;;;;5062928;28;20150;-69
2023/05/09 02:32:39;;;;;;;24.60;10.82;;;;;;;;;;5066187;28;20056;-69
2023/05/09 02:35:08;;;;;;;27.50;12.30;;;;;;;;;;5061480;28;20045;-69
2023/05/09 02:37:35;;;;;;;25.55;12.05;;;;;;;;;;5067762;28;20044;-70
2023/05/09 02:40:06;;;;;;;23.73;11.00;;;;;;;;;;5073514;28;20055;-70
2023/05/09 02:42:33;;;;;;;26.80;11.90;;;;;;;;;;5066303;28;20045;-69
2023/05/09 02:45:00;;;;;;;26.85;11.10;;;;;;;;;;5066808;28;20479;-69
2023/05/09 02:47:28;;;;;;;30.65;12.23;;;;;;;;;;5067443;28;20050;-70
2023/05/09 02:49:55;;;;;;;25.38;12.10;;;;;;;;;;5066750;28;20488;-70
2023/05/09 02:52:22;;;;;;;24.00;10.88;;;;;;;;;;5065427;28;20098;-69
2023/05/09 02:54:49;;;;;;;22.63;11.15;;;;;;;;;;5068305;28;20573;-69
2023/05/09 02:57:18;;;;;;;26.73;11.80;;;;;;;;;;5064475;28;20045;-69
2023/05/09 02:59:45;;;;;;;23.83;11.30;;;;;;;;;;5065618;28;20056;-69
2023/05/09 03:02:12;;;;;;;22.80;11.40;;;;;;;;;;5062755;28;20078;-70
2023/05/09 03:04:40;;;;;;;28.52;11.45;;;;;;;;;;5066497;28;20414;-70
2023/05/09 03:07:07;;;;;;;23.40;11.40;;;;;;;;;;5065780;28;20045;-69
2023/05/09 03:09:34;;;;;;;22.70;10.80;;;;;;;;;;5068978;28;20395;-69
2023/05/09 03:12:02;;;;;;;24.17;11.50;;;;;;;;;;5073616;28;20058;-69
2023/05/09 03:14:31;;;;;;;25.15;11.25;;;;;;;;;;5067474;28;20057;-69
2023/05/09 03:16:58;;;;;;;24.42;11.02;;;;;;;;;;5069614;28;20044;-69
2023/05/09 03:19:26;;;;;;;25.67;11.18;;;;;;;;;;5067313;28;20049;-70
2023/05/09 03:21:53;;;;;;;25.30;11.32;;;;;;;;;;5064438;28;20084;-69
2023/05/09 03:24:20;;;;;;;29.58;11.90;;;;;;;;;;5067723;28;20559;-69
2023/05/09 03:26:47;;;;;;;27.95;12.02;;;;;;;;;;5067765;28;20153;-70
2023/05/09 03:29:14;;;;;;;29.08;11.75;;;;;;;;;;5069096;28;20074;-69
2023/05/09 03:31:43;;;;;;;27.30;12.13;;;;;;;;;;5069360;28;20051;-69
2023/05/09 03:34:13;;;;;;;29.77;11.63;;;;;;;;;;5071193;28;20641;-69
2023/05/09 03:36:41;;;;;;;24.77;11.57;;;;;;;;;;5067269;28;20040;-69
2023/05/09 03:39:08;;;;;;;23.08;11.27;;;;;;;;;;5067872;28;20060;-69
2023/05/09 03:41:36;;;;;;;26.05;10.73;;;;;;;;;;5065569;28;20547;-69
2023/05/09 03:44:03;;;;;;;37.97;12.50;;;;;;;;;;5066337;28;20052;-70
2023/05/09 03:46:30;;;;;;;29.42;11.65;;;;;;;;;;5065425;28;20539;-69
2023/05/09 03:48:59;;;;;;;26.48;12.52;;;;;;;;;;5064107;28;20056;-69
2023/05/09 03:51:26;;;;;;;29.50;11.65;;;;;;;;;;5059123;28;20443;-70
2023/05/09 03:53:54;;;;;;;29.48;11.85;;;;;;;;;;5064480;28;20532;-70
2023/05/09 03:56:21;;;;;;;27.73;12.02;;;;;;;;;;5063941;28;20110;-69
2023/05/09 03:58:48;;;;;;;28.30;11.48;;;;;;;;;;5068239;28;20408;-69
2023/05/09 04:01:16;;;;;;;26.30;11.55;;;;;;;;;;5056917;28;20060;-69
2023/05/09 04:03:43;;;;;;;30.65;12.48;;;;;;;;;;5067285;28;20686;-69
2023/05/09 04:06:11;;;;;;;31.85;13.00;;;;;;;;;;5068228;28;20468;-69
2023/05/09 04:08:39;;;;;;;31.83;12.50;;;;;;;;;;5064899;28;20052;-69
2023/05/09 04:11:06;;;;;;;28.95;13.00;;;;;;;;;;5060448;28;20040;-69
2023/05/09 04:13:34;;;;;;;33.85;12.73;;;;;;;;;;5058091;28;20064;-69
2023/05/09 04:16:01;;;;;;;32.85;13.43;;;;;;;;;;5059839;28;21213;-69
2023/05/09 04:18:29;;;;;;;30.42;13.50;;;;;;;;;;5066983;28;20080;-69
2023/05/09 04:20:56;;;;;;;36.33;13.80;;;;;;;;;;5067198;28;20052;-69
2023/05/09 04:23:25;;;;;;;35.63;13.52;;;;;;;;;;5065495;28;20041;-69
2023/05/09 04:25:53;;;;;;;33.20;13.52;;;;;;;;;;5069026;28;20052;-69
2023/05/09 04:28:20;;;;;;;30.33;12.40;;;;;;;;;;5066185;28;20124;-69
2023/05/09 04:30:47;;;;;;;34.60;13.75;;;;;;;;;;5071359;28;20056;-70
2023/05/09 04:33:15;;;;;;;33.28;12.48;;;;;;;;;;5066775;28;20047;-69
2023/05/09 04:35:43;;;;;;;39.58;14.27;;;;;;;;;;5061169;28;20052;-69
2023/05/09 04:38:10;;;;;;;35.88;13.13;;;;;;;;;;5069007;28;20048;-70
2023/05/09 04:40:38;;;;;;;34.60;14.20;;;;;;;;;;5071566;28;20396;-70
2023/05/09 04:43:06;;;;;;;41.53;15.52;;;;;;;;;;5070733;28;20045;-70
2023/05/09 04:45:33;;;;;;;48.90;15.73;;;;;;;;;;5072330;28;20059;-69
2023/05/09 04:48:00;;;;;;;37.40;14.52;;;;;;;;;;5066979;28;20447;-69
2023/05/09 04:50:28;;;;;;;40.67;15.93;;;;;;;;;;5070951;28;20041;-69
2023/05/09 04:52:55;;;;;;;36.40;14.15;;;;;;;;;;5073995;28;20528;-69
2023/05/09 04:55:22;;;;;;;39.60;14.63;;;;;;;;;;5063904;28;20045;-69
2023/05/09 04:57:51;;;;;;;38.67;14.23;;;;;;;;;;5063324;28;20047;-69
2023/05/09 05:00:18;;;;;;;32.83;13.85;;;;;;;;;;5068820;28;20067;-69
2023/05/09 05:02:45;;;;;;;35.05;14.63;;;;;;;;;;5068511;28;20063;-69
2023/05/09 05:05:13;;;;;;;36.88;14.85;;;;;;;;;;5065871;28;20052;-69
2023/05/09 05:07:40;;;;;;;37.33;15.10;;;;;;;;;;5074237;28;20055;-70
2023/05/09 05:10:08;;;;;;;37.20;15.00;;;;;;;;;;5066700;28;20056;-70
2023/05/09 05:12:35;;;;;;;40.38;15.80;;;;;;;;;;5070201;28;20048;-70
2023/05/09 05:15:04;;;;;;;36.00;14.50;;;;;;;;;;5068211;28;20111;-70
2023/05/09 05:17:31;;;;;;;38.70;14.57;;;;;;;;;;5068675;28;20043;-70
2023/05/09 05:19:58;;;;;;;45.60;15.65;;;;;;;;;;5074791;28;20488;-69
2023/05/09 05:22:26;;;;;;;36.30;14.85;;;;;;;;;;5068547;28;20781;-70
2023/05/09 05:24:53;;;;;;;39.45;15.48;;;;;;;;;;5069881;28;20160;-70
2023/05/09 05:27:20;;;;;;;39.42;15.88;;;;;;;;;;5063573;28;20752;-70
2023/05/09 05:29:47;;;;;;;38.47;15.93;;;;;;;;;;5057774;28;20052;-70
2023/05/09 05:32:16;;;;;;;43.10;16.00;;;;;;;;;;5059794;28;20586;-70
2023/05/09 05:34:43;;;;;;;46.03;15.90;;;;;;;;;;5059643;28;20102;-70
2023/05/09 05:37:10;;;;;;;41.63;16.30;;;;;;;;;;5059121;28;20496;-70
2023/05/09 05:39:38;;;;;;;44.15;16.38;;;;;;;;;;5061482;28;20253;-70
2023/05/09 05:42:05;;;;;;;48.38;17.92;;;;;;;;;;5056056;28;20496;-70
2023/05/09 05:44:34;;;;;;;41.70;16.08;;;;;;;;;;5061262;28;20040;-70
2023/05/09 05:47:01;;;;;;;38.53;15.30;;;;;;;;;;5059367;28;20052;-70
2023/05/09 05:49:30;;;;;;;39.85;15.60;;;;;;;;;;5060561;28;20067;-70
2023/05/09 05:51:57;;;;;;;46.20;17.05;;;;;;;;;;5062966;28;20050;-70
2023/05/09 05:54:24;;;;;;;41.10;16.55;;;;;;;;;;5062411;28;20040;-70
2023/05/09 05:56:51;;;;;;;39.75;16.05;;;;;;;;;;5059746;28;20055;-70
2023/05/09 05:59:19;;;;;;;38.53;16.60;;;;;;;;;;5068311;28;20048;-71
2023/05/09 06:01:46;;;;;;;38.38;16.48;;;;;;;;;;5068644;28;20431;-70
2023/05/09 06:04:13;;;;;;;40.38;16.55;;;;;;;;;;5066547;28;20051;-70
2023/05/09 06:06:42;;;;;;;42.20;17.38;;;;;;;;;;5066709;28;20071;-70
2023/05/09 06:09:09;;;;;;;41.83;17.45;;;;;;;;;;5071322;28;20048;-70
2023/05/09 06:11:36;;;;;;;38.47;17.60;;;;;;;;;;5069381;28;20048;-70
2023/05/09 06:14:03;;;;;;;48.63;18.67;;;;;;;;;;5066625;28;20080;-70
2023/05/09 06:16:31;;;;;;;43.13;16.60;;;;;;;;;;5064455;28;20078;-70
2023/05/09 06:18:58;;;;;;;46.13;17.67;;;;;;;;;;5063943;28;20052;-70
2023/05/09 06:21:25;;;;;;;46.78;18.58;;;;;;;;;;5073848;28;20535;-70
2023/05/09 06:23:54;;;;;;;43.80;17.30;;;;;;;;;;5070441;28;20049;-71
2023/05/09 06:26:21;;;;;;;49.10;18.65;;;;;;;;;;5062536;28;20439;-70
2023/05/09 06:28:49;;;;;;;44.20;18.95;;;;;;;;;;5070372;28;20063;-70
2023/05/09 06:31:16;;;;;;;44.53;17.92;;;;;;;;;;5069253;28;20488;-70
2023/05/09 06:33:43;;;;;;;43.90;18.08;;;;;;;;;;5069938;28;20044;-70
2023/05/09 06:36:10;;;;;;;41.17;17.98;;;;;;;;;;5067595;28;20055;-70
2023/05/09 06:38:38;;;;;;;39.72;17.58;;;;;;;;;;5069020;28;20045;-70
2023/05/09 06:41:06;;;;;;;41.47;17.60;;;;;;;;;;5065983;28;20045;-70
2023/05/09 06:43:33;;;;;;;41.47;17.20;;;;;;;;;;5070732;28;20055;-70
2023/05/09 06:46:01;;;;;;;39.22;17.40;;;;;;;;;;5067913;28;20060;-70
2023/05/09 06:48:28;;;;;;;43.03;18.52;;;;;;;;;;5073561;28;20519;-70
2023/05/09 06:50:55;;;;;;;36.70;16.38;;;;;;;;;;5075017;28;20044;-70
2023/05/09 06:53:22;;;;;;;39.42;16.95;;;;;;;;;;5070085;28;20049;-70
2023/05/09 06:55:50;;;;;;;35.15;16.67;;;;;;;;;;5074817;28;20496;-70
2023/05/09 06:58:18;;;;;;;38.25;16.40;;;;;;;;;;5069396;28;20051;-70
2023/05/09 07:00:46;;;;;;;37.35;17.23;;;;;;;;;;5068325;28;20055;-70
2023/05/09 07:03:13;;;;;;;39.13;18.52;;;;;;;;;;5067006;28;20106;-71
2023/05/09 07:05:40;;;;;;;43.05;18.13;;;;;;;;;;5067872;28;20484;-70
2023/05/09 07:08:08;;;;;;;42.70;18.35;;;;;;;;;;5069398;28;20566;-70
2023/05/09 07:10:35;;;;;;;40.28;18.02;;;;;;;;;;5061117;28;20084;-70
2023/05/09 07:13:02;;;;;;;37.97;18.23;;;;;;;;;;5066776;28;20480;-70
2023/05/09 07:15:31;;;;;;;43.67;19.42;;;;;;;;;;5068086;28;20067;-70
2023/05/09 07:17:58;;;;;;;40.03;18.95;;;;;;;;;;5066159;28;20049;-70
2023/05/09 07:20:25;;;;;;;37.95;17.85;;;;;;;;;;5068405;28;20488;-70
2023/05/09 07:22:52;;;;;;;39.42;17.83;;;;;;;;;;5064712;28;20060;-70
2023/05/09 07:25:20;;;;;;;37.58;17.88;;;;;;;;;;5067259;28;20052;-70
2023/05/09 07:27:47;;;;;;;37.05;17.80;;;;;;;;;;5068661;28;20481;-70
2023/05/09 07:30:14;;;;;;;35.40;17.25;;;;;;;;;;5067470;28;20517;-70
2023/05/09 07:32:43;;;;;;;35.70;16.50;;;;;;;;;;5066607;28;20063;-70
2023/05/09 07:35:10;;;;;;;37.28;17.55;;;;;;;;;;5066219;28;20455;-70
2023/05/09 07:37:37;;;;;;;38.65;16.48;;;;;;;;;;5067143;28;20499;-70
2023/05/09 07:40:05;;;;;;;39.47;16.73;;;;;;;;;;5067872;28;20049;-70
2023/05/09 07:42:32;;;;;;;35.53;15.95;;;;;;;;;;5065724;28;20072;-70
2023/05/09 07:45:00;;;;;;;31.95;15.20;;;;;;;;;;5065142;28;20052;-70
2023/05/09 07:47:27;;;;;;;27.45;15.07;;;;;;;;;;5065849;28;20041;-70
2023/05/09 07:49:56;;;;;;;32.67;15.15;;;;;;;;;;5063140;28;20053;-70
2023/05/09 07:52:23;;;;;;;30.80;15.13;;;;;;;;;;5065822;28;20047;-70
2023/05/09 07:54:50;;;;;;;33.67;15.45;;;;;;;;;;5068732;28;20052;-70
2023/05/09 07:57:17;;;;;;;31.95;15.48;;;;;;;;;;5068731;28;20041;-70
2023/05/09 07:59:45;;;;;;;34.47;15.27;;;;;;;;;;5069340;28;20500;-70
2023/05/09 08:02:12;;;;;;;32.53;14.65;;;;;;;;;;5065611;28;20063;-70
2023/05/09 08:04:40;;;;;;;32.90;15.60;;;;;;;;;;5059607;28;20049;-70
2023/05/09 08:07:08;;;;;;;36.72;16.35;;;;;;;;;;5068158;28;20088;-70
2023/05/09 08:09:36;;;;;;;31.05;16.02;;;;;;;;;;5074559;28;20044;-70
2023/05/09 08:12:03;;;;;;;35.60;15.98;;;;;;;;;;5067880;28;20141;-70
2023/05/09 08:14:30;;;;;;;35.67;15.88;;;;;;;;;;5070061;28;20053;-70
2023/05/09 08:16:58;;;;;;;35.50;16.42;;;;;;;;;;5073747;28;20071;-70
2023/05/09 08:19:25;;;;;;;35.83;16.52;;;;;;;;;;5076181;28;20469;-70
2023/05/09 08:21:53;;;;;;;32.55;15.30;;;;;;;;;;5066241;28;20118;-70
2023/05/09 08:24:21;;;;;;;35.67;16.92;;;;;;;;;;5062659;28;20045;-70
2023/05/09 08:26:49;;;;;;;37.42;16.95;;;;;;;;;;5070683;28;20496;-71
2023/05/09 08:29:16;;;;;;;35.60;15.70;;;;;;;;;;5064727;28;20506;-70
2023/05/09 08:31:43;;;;;;;35.80;17.23;;;;;;;;;;5065125;28;20128;-70
2023/05/09 08:34:11;;;;;;;38.60;16.13;;;;;;;;;;5070788;28;20048;-70
2023/05/09 08:36:39;;;;;;;31.88;14.63;;;;;;;;;;5064772;28;20461;-70
2023/05/09 08:39:08;;;;;;;27.60;14.15;;;;;;;;;;5070349;28;20064;-70
2023/05/09 08:41:37;;;;;;;31.48;14.45;;;;;;;;;;5067803;28;20041;-71
2023/05/09 08:44:05;;;;;;;31.63;14.73;;;;;;;;;;5072176;28;20055;-70
2023/05/09 08:46:35;;;;;;;25.27;13.70;;;;;;;;;;5065683;28;20045;-70
2023/05/09 08:49:02;;;;;;;26.65;12.95;;;;;;;;;;5065300;28;20040;-71
2023/05/09 08:51:31;;;;;;;30.63;14.60;;;;;;;;;;5069316;28;20235;-71
2023/05/09 08:53:58;;;;;;;26.90;12.70;;;;;;;;;;5068773;28;21255;-70
2023/05/09 08:56:25;;;;;;;25.50;12.50;;;;;;;;;;5071276;28;20050;-70
2023/05/09 08:58:54;;;;;;;24.80;13.18;;;;;;;;;;5071775;28;20072;-70
2023/05/09 09:01:22;;;;;;;24.98;12.40;;;;;;;;;;5071251;28;20397;-70
2023/05/09 09:03:49;;;;;;;23.88;11.70;;;;;;;;;;5069535;28;20050;-70
2023/05/09 09:06:17;;;;;;;22.75;11.35;;;;;;;;;;5071061;28;20056;-70
2023/05/09 09:08:45;;;;;;;22.00;10.02;;;;;;;;;;5070601;28;20048;-70
2023/05/09 09:11:14;;;;;;;23.65;12.18;;;;;;;;;;5068175;28;20064;-71
2023/05/09 09:13:41;;;;;;;20.35;11.68;;;;;;;;;;5068190;28;20056;-70
2023/05/09 09:16:11;;;;;;;20.58;10.52;;;;;;;;;;5066464;28;20053;-70
2023/05/09 09:18:39;;;;;;;19.85;10.35;;;;;;;;;;5067302;28;20381;-70
2023/05/09 09:21:07;;;;;;;18.30;10.40;;;;;;;;;;5065904;28;20057;-70
2023/05/09 09:23:35;;;;;;;19.50;10.27;;;;;;;;;;5064925;28;20044;-70
2023/05/09 09:26:03;;;;;;;20.58;10.10;;;;;;;;;;5070130;28;20067;-70
2023/05/09 09:28:31;;;;;;;19.33;10.45;;;;;;;;;;5073376;28;20569;-70
2023/05/09 09:30:58;;;;;;;24.05;11.20;;;;;;;;;;5070247;28;20071;-71
2023/05/09 09:33:29;;;;;;;19.38;10.15;;;;;;;;;;5070210;28;20063;-71
2023/05/09 09:35:58;;;;;;;21.08;10.05;;;;;;;;;;5083353;28;20400;-70
2023/05/09 09:38:26;;;;;;;21.08;11.27;;;;;;;;;;5069186;28;20124;-70
2023/05/09 09:40:54;;;;;;;21.17;11.15;;;;;;;;;;5071336;28;20059;-70
2023/05/09 09:43:27;;;;;;;20.00;10.35;;;;;;;;;;5069302;28;20155;-70
2023/05/09 09:45:55;;;;;;;20.63;10.75;;;;;;;;;;5065013;28;20052;-70
2023/05/09 09:48:24;;;;;;;18.20;9.93;;;;;;;;;;5071005;28;20044;-70
2023/05/09 09:50:54;;;;;;;21.40;10.13;;;;;;;;;;5067754;28;20056;-70
2023/05/09 09:53:22;;;;;;;17.50;8.55;;;;;;;;;;5061773;28;20053;-70
2023/05/09 09:55:50;;;;;;;16.52;8.85;;;;;;;;;;5069488;28;20048;-70
2023/05/09 09:58:20;;;;;;;18.05;8.98;;;;;;;;;;5056828;28;20053;-70
2023/05/09 10:00:49;;;;;;;15.23;8.50;;;;;;;;;;5063922;28;20052;-70
2023/05/09 10:03:16;;;;;;;18.98;9.57;;;;;;;;;;5071725;28;20052;-70
2023/05/09 10:05:44;;;;;;;19.20;9.20;;;;;;;;;;5066968;28;20079;-70
2023/05/09 10:08:12;;;;;;;18.38;9.57;;;;;;;;;;5077932;28;20051;-70
2023/05/09 10:10:39;;;;;;;16.83;9.35;;;;;;;;;;5066688;28;20052;-70
2023/05/09 10:13:08;;;;;;;19.83;9.27;;;;;;;;;;5066332;28;20045;-70
2023/05/09 10:15:36;;;;;;;16.52;9.27;;;;;;;;;;5070613;28;20458;-66
2023/05/09 10:18:06;;;;;;;17.50;8.75;;;;;;;;;;5069198;28;20492;-66
2023/05/09 10:20:34;;;;;;;15.15;8.70;;;;;;;;;;5066188;28;20053;-67
2023/05/09 10:23:02;;;;;;;16.77;8.90;;;;;;;;;;5065681;28;20044;-67
2023/05/09 10:25:33;;;;;;;16.83;8.63;;;;;;;;;;5067135;28;20044;-67
2023/05/09 10:28:01;;;;;;;13.73;8.55;;;;;;;;;;5067092;28;20052;-67
2023/05/09 10:30:32;;;;;;;16.83;8.73;;;;;;;;;;5069354;28;20419;-67
2023/05/09 10:33:02;;;;;;;15.27;8.52;;;;;;;;;;5069667;28;20048;-66
2023/05/09 10:35:31;;;;;;;17.48;8.50;;;;;;;;;;5066506;28;20619;-66
2023/05/09 10:37:58;;;;;;;16.23;8.82;;;;;;;;;;5067056;28;20049;-66
2023/05/09 10:40:26;;;;;;;16.08;8.52;;;;;;;;;;5063456;28;20376;-66
2023/05/09 10:42:55;;;;;;;18.42;8.88;;;;;;;;;;5065134;28;20059;-66
2023/05/09 10:45:23;;;;;;;16.42;8.85;;;;;;;;;;5066216;28;20052;-66
2023/05/09 10:47:52;;;;;;;18.02;9.35;;;;;;;;;;5064857;28;20060;-66
2023/05/09 10:50:21;;;;;;;17.05;8.32;;;;;;;;;;5067750;28;20068;-66
2023/05/09 10:53:10;;;;;;;13.93;8.25;;;;;;;;;;5066612;28;20469;-66
2023/05/09 10:55:38;;;;;;;13.18;7.57;;;;;;;;;;5059835;28;20524;-65
2023/05/09 10:58:20;;;;;;;12.27;7.55;;;;;;;;;;5063536;28;20049;-67
2023/05/09 11:00:48;;;;;;;12.35;7.28;;;;;;;;;;5066212;28;20132;-66
2023/05/09 11:03:17;;;;;;;9.52;6.50;;;;;;;;;;5066596;28;20044;-66
2023/05/09 11:05:44;;;;;;;13.07;6.70;;;;;;;;;;5066436;28;20105;-66
2023/05/09 11:08:21;;;;;;;11.38;6.85;;;;;;;;;;5072395;28;20059;-67
2023/05/09 11:10:49;;;;;;;10.77;6.68;;;;;;;;;;5068266;28;20482;-67
2023/05/09 11:13:22;;;;;;;10.75;6.90;;;;;;;;;;5068786;28;20189;-66
2023/05/09 11:16:08;;;;;;;8.05;6.03;;;;;;;;;;5066817;28;20113;-66
2023/05/09 11:18:35;;;;;;;10.98;6.20;;;;;;;;;;5064714;28;20060;-66
2023/05/09 11:21:08;;;;;;;11.60;6.35;;;;;;;;;;5066360;28;20044;-66
2023/05/09 11:23:36;;;;;;;11.63;6.63;;;;;;;;;;5067211;28;20067;-67
2023/05/09 11:26:07;;;;;;;9.98;6.50;;;;;;;;;;5060410;28;20053;-67
2023/05/09 11:28:36;;;;;;;11.48;6.35;;;;;;;;;;5058260;28;20503;-68
2023/05/09 11:31:10;;;;;;;10.10;6.15;;;;;;;;;;5069732;28;20464;-69
2023/05/09 11:33:38;;;;;;;9.18;6.22;;;;;;;;;;5069148;28;20048;-69
2023/05/09 11:36:16;;;;;;;10.50;6.80;;;;;;;;;;5068330;28;20055;-69
2023/05/09 11:38:43;;;;;;;11.02;6.53;;;;;;;;;;5063719;28;20538;-68
2023/05/09 11:41:10;;;;;;;10.90;6.88;;;;;;;;;;5067531;28;20543;-69
2023/05/09 11:43:40;;;;;;;12.00;7.22;;;;;;;;;;5068916;28;20048;-69
2023/05/09 11:46:07;;;;;;;11.65;6.90;;;;;;;;;;5066860;28;20059;-69
2023/05/09 11:48:38;;;;;;;12.38;7.03;;;;;;;;;;5067043;28;20048;-69
2023/05/09 11:51:06;;;;;;;12.02;7.93;;;;;;;;;;5065797;28;20128;-69
2023/05/09 11:53:33;;;;;;;11.15;6.88;;;;;;;;;;5069842;28;20048;-68
2023/05/09 11:56:03;;;;;;;11.02;7.22;;;;;;;;;;5067685;28;20044;-68
2023/05/09 11:58:30;;;;;;;14.60;7.97;;;;;;;;;;5069835;28;20411;-68
2023/05/09 12:00:59;;;;;;;11.00;6.90;;;;;;;;;;5067577;28;20048;-68
2023/05/09 12:03:26;;;;;;;11.05;6.80;;;;;;;;;;5069505;28;20048;-67
2023/05/09 12:05:55;;;;;;;11.68;6.40;;;;;;;;;;5064265;28;20060;-67
2023/05/09 12:08:23;;;;;;;11.27;7.22;;;;;;;;;;5075327;28;20052;-67
2023/05/09 12:10:50;;;;;;;10.55;6.90;;;;;;;;;;5065946;28;20049;-68
2023/05/09 12:13:18;;;;;;;12.45;7.28;;;;;;;;;;5067496;28;20098;-67
2023/05/09 12:15:45;;;;;;;10.30;6.55;;;;;;;;;;5057742;28;20094;-71
2023/05/09 12:18:15;;;;;;;7.82;5.75;;;;;;;;;;5063746;28;20139;-72
2023/05/09 12:20:44;;;;;;;10.10;6.25;;;;;;;;;;5053869;28;20131;-72
2023/05/09 12:23:13;;;;;;;8.10;5.68;;;;;;;;;;5066425;28;20056;-71
2023/05/09 12:25:40;;;;;;;10.02;5.28;;;;;;;;;;5065336;28;20135;-72
2023/05/09 12:28:08;;;;;;;9.77;6.13;;;;;;;;;;5067343;28;20063;-71
2023/05/09 12:30:35;;;;;;;8.90;6.13;;;;;;;;;;5059727;28;20045;-71
2023/05/09 12:33:02;;;;;;;9.38;5.82;;;;;;;;;;5067565;28;20041;-71
2023/05/09 12:35:31;;;;;;;9.05;5.93;;;;;;;;;;5067453;28;20048;-72
2023/05/09 12:37:59;;;;;;;8.88;5.97;;;;;;;;;;5066196;28;20621;-71
2023/05/09 12:40:26;;;;;;;9.52;5.88;;;;;;;;;;5067883;28;20046;-71
2023/05/09 12:42:58;;;;;;;7.30;5.35;;;;;;;;;;5068189;28;20060;-72
2023/05/09 12:45:26;;;;;;;8.20;4.80;;;;;;;;;;5068938;28;20048;-71
2023/05/09 12:47:53;;;;;;;8.95;4.90;;;;;;;;;;5063470;28;20052;-71
2023/05/09 12:50:21;;;;;;;8.07;5.13;;;;;;;;;;5068791;28;20052;-72
2023/05/09 12:52:52;;;;;;;7.68;4.82;;;;;;;;;;5067151;28;20756;-72
2023/05/09 12:55:20;;;;;;;7.97;5.00;;;;;;;;;;5067755;28;20522;-72
2023/05/09 12:57:57;;;;;;;9.85;4.40;;;;;;;;;;5067612;28;20598;-72
2023/05/09 13:00:25;;;;;;;8.05;4.45;;;;;;;;;;5069255;28;20052;-72
2023/05/09 13:02:52;;;;;;;5.32;3.65;;;;;;;;;;5070951;28;20044;-72
2023/05/09 13:05:21;;;;;;;7.15;4.20;;;;;;;;;;5069239;28;20079;-73
2023/05/09 13:07:49;;;;;;;7.75;4.55;;;;;;;;;;5075746;28;20582;-73
2023/05/09 13:10:20;;;;;;;5.53;4.07;;;;;;;;;;5067931;28;20500;-73
2023/05/09 13:12:48;;;;;;;5.82;3.45;;;;;;;;;;5069314;28;20060;-73
2023/05/09 13:15:15;;;;;;;6.25;3.65;;;;;;;;;;5070549;28;20511;-73
2023/05/09 13:17:42;;;;;;;5.32;3.63;;;;;;;;;;5070238;28;20101;-73
2023/05/09 13:20:10;;;;;;;4.38;2.95;;;;;;;;;;5066843;28;20083;-73
2023/05/09 13:22:37;;;;;;;6.03;3.35;;;;;;;;;;5065588;28;20048;-73
2023/05/09 13:25:05;;;;;;;4.40;3.20;;;;;;;;;;5069177;28;20044;-74
2023/05/09 13:27:34;;;;;;;5.88;3.30;;;;;;;;;;5071183;28;20051;-74
2023/05/09 13:30:02;;;;;;;5.45;3.67;;;;;;;;;;5064403;28;20087;-74
2023/05/09 13:32:30;;;;;;;4.53;2.80;;;;;;;;;;5065204;28;20501;-73
2023/05/09 13:34:57;;;;;;;4.15;3.13;;;;;;;;;;5068457;28;20044;-73
2023/05/09 13:37:25;;;;;;;5.00;3.17;;;;;;;;;;5070321;28;20064;-73
2023/05/09 13:39:53;;;;;;;4.15;2.40;;;;;;;;;;5069169;28;20097;-74
2023/05/09 13:42:20;;;;;;;3.80;2.45;;;;;;;;;;5069919;28;20055;-73
2023/05/09 13:44:49;;;;;;;3.50;2.30;;;;;;;;;;5068433;28;20049;-73
2023/05/09 13:47:16;;;;;;;2.72;2.05;;;;;;;;;;5069154;28;20499;-73
2023/05/09 13:49:43;;;;;;;3.05;2.10;;;;;;;;;;5070179;28;20139;-73
2023/05/09 13:52:11;;;;;;;3.95;2.42;;;;;;;;;;5063417;28;20563;-73
2023/05/09 13:54:38;;;;;;;3.17;2.47;;;;;;;;;;5061103;28;20056;-73
2023/05/09 13:57:06;;;;;;;3.78;2.00;;;;;;;;;;5060612;28;20064;-73
2023/05/09 13:59:34;;;;;;;2.35;1.85;;;;;;;;;;5070040;28;20048;-74
2023/05/09 14:02:03;;;;;;;3.22;2.35;;;;;;;;;;5066025;28;20049;-73
2023/05/09 14:04:31;;;;;;;2.85;2.20;;;;;;;;;;5063828;28;20063;-73
2023/05/09 14:06:59;;;;;;;2.90;2.03;;;;;;;;;;5069522;28;20099;-74
2023/05/09 14:09:27;;;;;;;2.88;1.98;;;;;;;;;;5071886;28;20045;-73
2023/05/09 14:11:55;;;;;;;2.85;2.17;;;;;;;;;;5064309;28;20056;-73
2023/05/09 14:14:25;;;;;;;3.42;2.20;;;;;;;;;;5069789;28;20648;-74
2023/05/09 14:16:53;;;;;;;4.18;2.47;;;;;;;;;;5069257;28;20044;-75
2023/05/09 14:19:21;;;;;;;2.55;1.90;;;;;;;;;;5068212;28;20094;-74
2023/05/09 14:21:49;;;;;;;3.25;2.28;;;;;;;;;;5067135;28;20060;-74
2023/05/09 14:24:16;;;;;;;2.50;2.08;;;;;;;;;;5071446;28;20415;-74
2023/05/09 14:26:43;;;;;;;3.10;2.10;;;;;;;;;;5069562;28;20055;-74
2023/05/09 14:29:11;;;;;;;2.95;2.17;;;;;;;;;;5071401;28;20408;-73
2023/05/09 14:31:38;;;;;;;2.70;2.30;;;;;;;;;;5067420;28;20049;-73